Historyczne dane pomiarowe

Dodano dane terminowe – wersja testowa.

Dane z okresu 1951-2019

Wersja bazy: 1.34 [2019-03-16, lista zmian], aktualizacja planowana na 2019-04-15

Dane meteo z obszaru Polski uzyskane na podstawie danych udostępnionych przez Instytut Meteorologii i Gospodarki Wodnej – Państwowy Instytut Badawczy.

 

Wybierz Datę:    

       

TemperaturaWilgotnośćWiatrCiśnienieOpadyŚniegCzas trwania zjawisk
 Stacja t tx tn tng RH VA  wxwx mslp ppp RRR   cm mm wxwxwxwxwxwxwx
1983-08-14 15.0 19.9 10.5 7.7-- 4.3 2.3---- 0.0------------
1983-08-13 14.9 20.3 12.9 11.9-- 4.3 4.0---- 0.2------------
1983-08-12 20.0 25.7 13.3 11.3-- 3.0 3.3---- 11.6------------
1983-08-11 21.5 29.4 13.3 10.7-- 1.7 1.0---- 0.0------------
1983-08-10 20.9 26.9 13.4 11.6-- 0.7 1.3---- 0.0------------
1983-08-09 19.8 26.9 12.5 10.2-- 3.3 1.7---- 2.0------------
1983-08-08 19.1 26.9 14.9 12.1-- 6.7 2.0---- 9.6------------
1983-08-07 16.8 24.4 10.6 9.5-- 6.0 1.0---- 0.4------------
1983-08-06 15.4 20.7 10.8 8.1-- 4.0 1.3---- 0.0------------
1983-08-05 13.6 18.1 11.0 10.8-- 5.7 2.0---- 0.0------------
1983-08-04 12.6 13.5 11.7 11.2-- 8.0 3.0---- 5.7------------
1983-08-03 13.8 21.9 12.5 12.7-- 8.0 6.0---- 25.9------------
1983-08-02 22.7 31.2 19.8 17.5-- 4.7 3.3---- 0.0------------
1983-08-01 24.1 32.9 12.2 7.0-- 2.0 4.0---- 0.0------------
1983-07-31 18.5 26.7 7.1 3.6-- 0.0 1.0---- 0.0------------
1983-07-30 18.0 21.2 15.7 15.1-- 4.7 5.7---- 0.0------------
1983-07-29 18.3 23.7 14.3 11.7-- 3.7 4.3---- 0.3------------
1983-07-28 21.9 29.9 18.1 16.7-- 2.7 3.0---- 0.0------------
1983-07-27 23.9 34.5 11.9 10.4-- 1.7 1.0---- 0.0------------
1983-07-26 20.8 29.5 9.4 5.5-- 0.0 1.0---- 0.0------------
1983-07-25 18.2 26.5 7.5 4.6-- 0.0 1.0---- 0.0------------
1983-07-24 17.3 22.5 11.5 9.3-- 3.0 1.7---- 0.0------------
1983-07-23 19.4 25.6 13.8 11.6-- 1.7 2.3---- 0.0------------
1983-07-22 14.9 17.3 12.3 9.5-- 8.0 4.0---- 0.1------------
1983-07-21 14.6 19.4 9.3 8.4-- 2.3 5.3---- 0.0------------
1983-07-20 14.6 21.4 11.8 11.3-- 7.3 4.7---- 0.0------------
1983-07-19 21.0 29.0 18.2 18.5-- 5.7 3.3---- 0.9------------
1983-07-18 24.3 33.4 14.8 12.5-- 1.3 2.3---- 22.0------------
1983-07-17 20.3 27.1 12.9 11.8-- 0.3 1.0---- 0.0------------
1983-07-16 20.8 25.0 16.9 13.6-- 5.3 5.0---- 8.9------------
1983-07-15 20.2 27.1 11.8 12.2-- 1.3 2.0---- 0.0------------
1983-07-14 21.7 26.4 16.4 14.5-- 5.7 3.0---- 0.0------------
1983-07-13 19.9 23.7 16.7 13.0-- 5.3 3.0---- 0.6------------
1983-07-12 23.6 31.4 14.7 11.3-- 3.3 3.7---- 11.3------------
1983-07-11 23.6 30.9 13.8 14.2-- 2.7 2.7---- 0.0------------
1983-07-10 24.1 31.3 12.5 8.4-- 1.3 1.7---- 0.0------------
1983-07-09 21.8 29.9 10.4 5.1-- 0.3 1.7---- 0.0------------
1983-07-08 20.3 28.5 8.9 4.7-- 0.0 3.0---- 0.0------------
1983-07-07 22.7 29.2 11.9 11.1-- 0.0 3.0---- 0.0------------
1983-07-06 22.3 29.7 12.1 8.6-- 0.0 1.0---- 0.0------------
1983-07-05 19.0 26.4 8.4 7.2-- 0.0 1.0---- 0.0------------
1983-07-04 19.0 26.1 11.2 9.2-- 0.7 3.0---- 0.0------------
1983-07-03 18.3 24.5 8.6 6.9-- 2.7 1.3---- 0.0------------
1983-07-02 16.8 22.4 10.9 7.0-- 2.7 2.3---- 0.0------------
1983-07-01 19.5 26.1 12.8 8.4-- 3.0 3.0---- 0.5------------
1983-06-30 19.0 23.5 12.1 9.1-- 2.0 1.7---- 0.0------------
1983-06-29 14.0 19.2 8.1 6.6-- 3.0 2.7---- 0.0------------
1983-06-28 15.0 18.1 12.4 11.1-- 4.3 4.7---- 0.0------------
1983-06-27 17.1 23.4 13.4 11.5-- 8.0 1.7---- 5.5------------
1983-06-26 19.3 26.1 8.8 4.6-- 0.7 2.0---- 3.3------------
1983-06-25 20.0 28.1 10.1 6.4-- 2.0 1.3---- 0.0------------
1983-06-24 20.2 28.6 7.4 1.9-- 0.0 1.0---- 0.0------------
1983-06-23 16.2 23.6 4.7 4.0-- 0.0 1.3---- 0.0------------
1983-06-22 14.6 21.2 6.6 5.1-- 0.0 3.0---- 0.0------------
1983-06-21 18.3 29.4 10.1 6.2-- 0.3 3.0---- 0.0------------
1983-06-20 17.9 26.0 7.0 3.0-- 0.0 2.7---- 0.0------------
1983-06-19 16.5 22.9 8.0 8.4-- 3.3 4.3---- 0.0------------
1983-06-18 13.6 16.4 9.4 8.7-- 7.0 2.7---- 0.0------------
1983-06-17 13.0 16.4 10.3 9.7-- 4.3 3.0---- 0.7------------
1983-06-16 13.0 18.1 9.5 8.9-- 3.7 4.0---- 0.0------------
265.6 ms

 

Źródłem pochodzenia danych jest Instytut Meteorologii i Gospodarki Wodnej – Państwowy Instytut Badawczy. Dane Instytutu Meteorologii i Gospodarki Wodnej – Państwowego Instytutu Badawczego zostały przetworzone.

Dane źródłowe można odnaleźć na stronie https://dane.imgw.pl